sensor_id;sensor_type;location;lat;lon;timestamp;temperature;humidity
29663;DHT22;16578;53.266;7.920;2023-09-30T00:00:59;17.10;78.10
29663;DHT22;16578;53.266;7.920;2023-09-30T00:03:24;17.10;78.10
29663;DHT22;16578;53.266;7.920;2023-09-30T00:05:50;17.10;78.20
29663;DHT22;16578;53.266;7.920;2023-09-30T00:08:16;17.10;78.10
29663;DHT22;16578;53.266;7.920;2023-09-30T00:10:41;17.10;78.00
29663;DHT22;16578;53.266;7.920;2023-09-30T00:13:07;17.10;78.10
29663;DHT22;16578;53.266;7.920;2023-09-30T00:15:33;17.10;78.10
29663;DHT22;16578;53.266;7.920;2023-09-30T00:17:59;17.10;78.10
29663;DHT22;16578;53.266;7.920;2023-09-30T00:20:24;17.00;78.20
29663;DHT22;16578;53.266;7.920;2023-09-30T00:22:50;17.00;78.20
29663;DHT22;16578;53.266;7.920;2023-09-30T00:25:15;17.00;78.20
29663;DHT22;16578;53.266;7.920;2023-09-30T00:27:41;17.00;78.10
29663;DHT22;16578;53.266;7.920;2023-09-30T00:30:07;17.00;78.20
29663;DHT22;16578;53.266;7.920;2023-09-30T00:32:33;17.00;78.40
29663;DHT22;16578;53.266;7.920;2023-09-30T00:35:00;17.00;78.50
29663;DHT22;16578;53.266;7.920;2023-09-30T00:37:26;17.00;78.40
29663;DHT22;16578;53.266;7.920;2023-09-30T00:39:52;17.00;78.40
29663;DHT22;16578;53.266;7.920;2023-09-30T00:42:18;17.00;78.50
29663;DHT22;16578;53.266;7.920;2023-09-30T00:44:46;17.00;78.50
29663;DHT22;16578;53.266;7.920;2023-09-30T00:47:11;17.00;78.40
29663;DHT22;16578;53.266;7.920;2023-09-30T00:49:38;17.00;78.40
29663;DHT22;16578;53.266;7.920;2023-09-30T00:52:03;17.00;78.30
29663;DHT22;16578;53.266;7.920;2023-09-30T00:54:29;17.00;78.30
29663;DHT22;16578;53.266;7.920;2023-09-30T00:56:56;17.00;78.30
29663;DHT22;16578;53.266;7.920;2023-09-30T00:59:23;17.00;78.30
29663;DHT22;16578;53.266;7.920;2023-09-30T01:01:50;17.00;78.30
29663;DHT22;16578;53.266;7.920;2023-09-30T01:04:16;17.00;78.20
29663;DHT22;16578;53.266;7.920;2023-09-30T01:06:43;16.90;78.10
29663;DHT22;16578;53.266;7.920;2023-09-30T01:09:08;16.90;78.10
29663;DHT22;16578;53.266;7.920;2023-09-30T01:11:34;16.90;78.30
29663;DHT22;16578;53.266;7.920;2023-09-30T01:14:00;17.00;78.40
29663;DHT22;16578;53.266;7.920;2023-09-30T01:16:25;16.90;78.30
29663;DHT22;16578;53.266;7.920;2023-09-30T01:18:51;16.90;78.30
29663;DHT22;16578;53.266;7.920;2023-09-30T01:21:18;16.90;78.30
29663;DHT22;16578;53.266;7.920;2023-09-30T01:23:44;16.90;78.30
29663;DHT22;16578;53.266;7.920;2023-09-30T01:26:12;16.90;78.40
29663;DHT22;16578;53.266;7.920;2023-09-30T01:28:39;16.90;78.30
29663;DHT22;16578;53.266;7.920;2023-09-30T01:31:05;16.90;78.30
29663;DHT22;16578;53.266;7.920;2023-09-30T01:33:31;16.90;78.30
29663;DHT22;16578;53.266;7.920;2023-09-30T01:35:58;16.90;78.30
29663;DHT22;16578;53.266;7.920;2023-09-30T01:38:23;16.80;78.20
29663;DHT22;16578;53.266;7.920;2023-09-30T01:40:49;16.80;78.20
29663;DHT22;16578;53.266;7.920;2023-09-30T01:43:15;16.80;78.20
29663;DHT22;16578;53.266;7.920;2023-09-30T01:45:42;16.80;78.20
29663;DHT22;16578;53.266;7.920;2023-09-30T01:48:08;16.80;78.00
29663;DHT22;16578;53.266;7.920;2023-09-30T01:50:39;16.80;78.00
29663;DHT22;16578;53.266;7.920;2023-09-30T01:53:07;16.70;78.10
29663;DHT22;16578;53.266;7.920;2023-09-30T01:55:34;16.70;78.10
29663;DHT22;16578;53.266;7.920;2023-09-30T01:58:01;16.70;78.00
29663;DHT22;16578;53.266;7.920;2023-09-30T02:00:27;16.70;78.10
29663;DHT22;16578;53.266;7.920;2023-09-30T02:02:54;16.70;78.10
29663;DHT22;16578;53.266;7.920;2023-09-30T02:05:21;16.60;78.00
29663;DHT22;16578;53.266;7.920;2023-09-30T02:07:47;16.60;78.10
29663;DHT22;16578;53.266;7.920;2023-09-30T02:10:12;16.60;78.10
29663;DHT22;16578;53.266;7.920;2023-09-30T02:12:38;16.60;78.20
29663;DHT22;16578;53.266;7.920;2023-09-30T02:15:04;16.60;78.20
29663;DHT22;16578;53.266;7.920;2023-09-30T02:17:29;16.60;78.20
29663;DHT22;16578;53.266;7.920;2023-09-30T02:19:55;16.60;78.30
29663;DHT22;16578;53.266;7.920;2023-09-30T02:22:20;16.60;78.20
29663;DHT22;16578;53.266;7.920;2023-09-30T02:24:46;16.60;78.30
29663;DHT22;16578;53.266;7.920;2023-09-30T02:27:13;16.60;78.40
29663;DHT22;16578;53.266;7.920;2023-09-30T02:29:39;16.60;78.40
29663;DHT22;16578;53.266;7.920;2023-09-30T02:32:04;16.60;78.40
29663;DHT22;16578;53.266;7.920;2023-09-30T02:34:30;16.60;78.50
29663;DHT22;16578;53.266;7.920;2023-09-30T02:36:56;16.50;78.40
29663;DHT22;16578;53.266;7.920;2023-09-30T02:39:22;16.50;78.50
29663;DHT22;16578;53.266;7.920;2023-09-30T02:41:47;16.50;78.50
29663;DHT22;16578;53.266;7.920;2023-09-30T02:44:15;16.50;78.50
29663;DHT22;16578;53.266;7.920;2023-09-30T02:46:41;16.60;78.50
29663;DHT22;16578;53.266;7.920;2023-09-30T02:49:06;16.50;78.40
29663;DHT22;16578;53.266;7.920;2023-09-30T02:51:33;16.60;78.40
29663;DHT22;16578;53.266;7.920;2023-09-30T02:53:58;16.50;78.30
29663;DHT22;16578;53.266;7.920;2023-09-30T02:56:24;16.50;78.30
29663;DHT22;16578;53.266;7.920;2023-09-30T02:58:50;16.50;78.30
29663;DHT22;16578;53.266;7.920;2023-09-30T03:01:17;16.50;78.30
29663;DHT22;16578;53.266;7.920;2023-09-30T03:03:43;16.50;78.40
29663;DHT22;16578;53.266;7.920;2023-09-30T03:06:10;16.50;78.50
29663;DHT22;16578;53.266;7.920;2023-09-30T03:08:36;16.50;78.50
29663;DHT22;16578;53.266;7.920;2023-09-30T03:11:02;16.50;78.60
29663;DHT22;16578;53.266;7.920;2023-09-30T03:13:27;16.50;78.70
29663;DHT22;16578;53.266;7.920;2023-09-30T03:15:53;16.50;78.70
29663;DHT22;16578;53.266;7.920;2023-09-30T03:18:18;16.50;78.70
29663;DHT22;16578;53.266;7.920;2023-09-30T03:20:58;16.50;78.70
29663;DHT22;16578;53.266;7.920;2023-09-30T03:23:28;16.50;78.70
29663;DHT22;16578;53.266;7.920;2023-09-30T03:25:59;16.50;78.70
29663;DHT22;16578;53.266;7.920;2023-09-30T03:28:25;16.50;78.70
29663;DHT22;16578;53.266;7.920;2023-09-30T03:30:51;16.50;78.70
29663;DHT22;16578;53.266;7.920;2023-09-30T03:33:16;16.50;78.70
29663;DHT22;16578;53.266;7.920;2023-09-30T03:35:42;16.50;78.80
29663;DHT22;16578;53.266;7.920;2023-09-30T03:38:08;16.50;78.70
29663;DHT22;16578;53.266;7.920;2023-09-30T03:40:35;16.50;78.80
29663;DHT22;16578;53.266;7.920;2023-09-30T03:43:03;16.50;78.80
29663;DHT22;16578;53.266;7.920;2023-09-30T03:45:31;16.40;78.80
29663;DHT22;16578;53.266;7.920;2023-09-30T03:47:58;16.50;78.90
29663;DHT22;16578;53.266;7.920;2023-09-30T03:50:24;16.50;78.90
29663;DHT22;16578;53.266;7.920;2023-09-30T03:52:50;16.50;78.90
29663;DHT22;16578;53.266;7.920;2023-09-30T03:55:18;16.50;79.00
29663;DHT22;16578;53.266;7.920;2023-09-30T03:57:46;16.50;79.00
29663;DHT22;16578;53.266;7.920;2023-09-30T04:00:13;16.50;79.10
29663;DHT22;16578;53.266;7.920;2023-09-30T04:02:42;16.50;79.00
29663;DHT22;16578;53.266;7.920;2023-09-30T04:05:09;16.50;79.00
29663;DHT22;16578;53.266;7.920;2023-09-30T04:07:39;16.50;79.10
29663;DHT22;16578;53.266;7.920;2023-09-30T04:10:05;16.50;79.10
29663;DHT22;16578;53.266;7.920;2023-09-30T04:12:30;16.50;79.20
29663;DHT22;16578;53.266;7.920;2023-09-30T04:14:58;16.50;79.10
29663;DHT22;16578;53.266;7.920;2023-09-30T04:17:23;16.50;79.10
29663;DHT22;16578;53.266;7.920;2023-09-30T04:19:49;16.50;79.10
29663;DHT22;16578;53.266;7.920;2023-09-30T04:22:17;16.50;79.10
29663;DHT22;16578;53.266;7.920;2023-09-30T04:24:43;16.50;79.00
29663;DHT22;16578;53.266;7.920;2023-09-30T04:27:08;16.50;79.00
29663;DHT22;16578;53.266;7.920;2023-09-30T04:29:34;16.50;79.00
29663;DHT22;16578;53.266;7.920;2023-09-30T04:32:00;16.50;79.00
29663;DHT22;16578;53.266;7.920;2023-09-30T04:34:25;16.50;79.00
29663;DHT22;16578;53.266;7.920;2023-09-30T04:36:53;16.50;79.00
29663;DHT22;16578;53.266;7.920;2023-09-30T04:39:18;16.50;79.00
29663;DHT22;16578;53.266;7.920;2023-09-30T04:41:44;16.50;79.10
29663;DHT22;16578;53.266;7.920;2023-09-30T04:44:10;16.50;79.10
29663;DHT22;16578;53.266;7.920;2023-09-30T04:46:36;16.50;79.10
29663;DHT22;16578;53.266;7.920;2023-09-30T04:49:08;16.50;79.10
29663;DHT22;16578;53.266;7.920;2023-09-30T04:51:34;16.50;79.00
29663;DHT22;16578;53.266;7.920;2023-09-30T04:54:00;16.40;79.20
29663;DHT22;16578;53.266;7.920;2023-09-30T04:56:25;16.40;78.90
29663;DHT22;16578;53.266;7.920;2023-09-30T04:58:51;16.50;78.90
29663;DHT22;16578;53.266;7.920;2023-09-30T05:01:17;16.50;78.90
29663;DHT22;16578;53.266;7.920;2023-09-30T05:03:44;16.50;78.90
29663;DHT22;16578;53.266;7.920;2023-09-30T05:06:10;16.40;79.80
29663;DHT22;16578;53.266;7.920;2023-09-30T05:08:35;16.40;78.90
29663;DHT22;16578;53.266;7.920;2023-09-30T05:11:01;16.40;78.90
29663;DHT22;16578;53.266;7.920;2023-09-30T05:13:26;16.40;78.80
29663;DHT22;16578;53.266;7.920;2023-09-30T05:15:52;16.40;78.90
29663;DHT22;16578;53.266;7.920;2023-09-30T05:18:18;16.40;78.90
29663;DHT22;16578;53.266;7.920;2023-09-30T05:20:44;16.40;78.90
29663;DHT22;16578;53.266;7.920;2023-09-30T05:23:09;16.40;78.90
29663;DHT22;16578;53.266;7.920;2023-09-30T05:25:39;16.40;78.90
29663;DHT22;16578;53.266;7.920;2023-09-30T05:28:05;16.30;78.90
29663;DHT22;16578;53.266;7.920;2023-09-30T05:30:32;16.40;78.90
29663;DHT22;16578;53.266;7.920;2023-09-30T05:32:59;16.30;78.90
29663;DHT22;16578;53.266;7.920;2023-09-30T05:35:25;16.30;79.00
29663;DHT22;16578;53.266;7.920;2023-09-30T05:37:51;16.30;79.00
29663;DHT22;16578;53.266;7.920;2023-09-30T05:40:20;16.30;79.00
29663;DHT22;16578;53.266;7.920;2023-09-30T05:42:56;16.30;79.00
29663;DHT22;16578;53.266;7.920;2023-09-30T05:45:23;16.30;78.90
29663;DHT22;16578;53.266;7.920;2023-09-30T05:47:49;16.30;78.90
29663;DHT22;16578;53.266;7.920;2023-09-30T05:50:17;16.20;78.90
29663;DHT22;16578;53.266;7.920;2023-09-30T05:52:43;16.20;79.00
29663;DHT22;16578;53.266;7.920;2023-09-30T05:55:10;16.20;78.90
29663;DHT22;16578;53.266;7.920;2023-09-30T05:57:36;16.20;79.00
29663;DHT22;16578;53.266;7.920;2023-09-30T06:00:03;16.20;79.00
29663;DHT22;16578;53.266;7.920;2023-09-30T06:02:52;16.20;79.00
29663;DHT22;16578;53.266;7.920;2023-09-30T06:05:18;16.20;79.10
29663;DHT22;16578;53.266;7.920;2023-09-30T06:07:47;16.20;79.10
29663;DHT22;16578;53.266;7.920;2023-09-30T06:10:13;16.20;79.30
29663;DHT22;16578;53.266;7.920;2023-09-30T06:12:41;16.20;79.30
29663;DHT22;16578;53.266;7.920;2023-09-30T06:15:07;16.20;79.40
29663;DHT22;16578;53.266;7.920;2023-09-30T06:17:33;16.20;79.50
29663;DHT22;16578;53.266;7.920;2023-09-30T06:19:59;16.20;79.60
29663;DHT22;16578;53.266;7.920;2023-09-30T06:22:32;16.30;79.70
29663;DHT22;16578;53.266;7.920;2023-09-30T06:24:58;16.20;79.70
29663;DHT22;16578;53.266;7.920;2023-09-30T06:27:23;16.30;79.80
29663;DHT22;16578;53.266;7.920;2023-09-30T06:29:49;16.30;79.80
29663;DHT22;16578;53.266;7.920;2023-09-30T06:32:14;16.30;79.80
29663;DHT22;16578;53.266;7.920;2023-09-30T06:34:40;16.30;79.80
29663;DHT22;16578;53.266;7.920;2023-09-30T06:37:06;16.30;79.80
29663;DHT22;16578;53.266;7.920;2023-09-30T06:39:32;16.30;79.80
29663;DHT22;16578;53.266;7.920;2023-09-30T06:41:57;16.30;79.80
29663;DHT22;16578;53.266;7.920;2023-09-30T06:44:23;16.40;79.90
29663;DHT22;16578;53.266;7.920;2023-09-30T06:46:50;16.40;80.00
29663;DHT22;16578;53.266;7.920;2023-09-30T06:49:16;16.40;80.10
29663;DHT22;16578;53.266;7.920;2023-09-30T06:51:42;16.40;80.10
29663;DHT22;16578;53.266;7.920;2023-09-30T06:54:07;16.50;81.10
29663;DHT22;16578;53.266;7.920;2023-09-30T06:56:33;16.50;80.20
29663;DHT22;16578;53.266;7.920;2023-09-30T06:58:59;16.50;80.20
29663;DHT22;16578;53.266;7.920;2023-09-30T07:01:25;16.50;80.30
29663;DHT22;16578;53.266;7.920;2023-09-30T07:03:50;16.50;80.30
29663;DHT22;16578;53.266;7.920;2023-09-30T07:06:26;16.60;80.40
29663;DHT22;16578;53.266;7.920;2023-09-30T07:08:52;16.60;80.40
29663;DHT22;16578;53.266;7.920;2023-09-30T07:11:29;16.60;80.40
29663;DHT22;16578;53.266;7.920;2023-09-30T07:13:57;16.60;80.50
29663;DHT22;16578;53.266;7.920;2023-09-30T07:16:23;16.60;80.40
29663;DHT22;16578;53.266;7.920;2023-09-30T07:18:49;16.70;80.50
29663;DHT22;16578;53.266;7.920;2023-09-30T07:21:16;16.70;80.60
29663;DHT22;16578;53.266;7.920;2023-09-30T07:23:41;16.80;80.60
29663;DHT22;16578;53.266;7.920;2023-09-30T07:26:07;16.80;80.60
29663;DHT22;16578;53.266;7.920;2023-09-30T07:28:33;16.80;80.80
29663;DHT22;16578;53.266;7.920;2023-09-30T07:30:58;16.80;80.70
29663;DHT22;16578;53.266;7.920;2023-09-30T07:33:24;16.80;80.70
29663;DHT22;16578;53.266;7.920;2023-09-30T07:35:50;16.90;80.70
29663;DHT22;16578;53.266;7.920;2023-09-30T07:38:15;16.90;80.70
29663;DHT22;16578;53.266;7.920;2023-09-30T07:40:41;17.00;80.80
29663;DHT22;16578;53.266;7.920;2023-09-30T07:43:07;17.00;80.80
29663;DHT22;16578;53.266;7.920;2023-09-30T07:45:32;17.00;80.70
29663;DHT22;16578;53.266;7.920;2023-09-30T07:47:58;17.00;80.80
29663;DHT22;16578;53.266;7.920;2023-09-30T07:50:24;17.10;80.90
29663;DHT22;16578;53.266;7.920;2023-09-30T07:52:49;17.10;80.90
29663;DHT22;16578;53.266;7.920;2023-09-30T07:55:15;17.10;81.00
29663;DHT22;16578;53.266;7.920;2023-09-30T07:57:42;17.20;81.00
29663;DHT22;16578;53.266;7.920;2023-09-30T08:00:09;17.20;80.90
29663;DHT22;16578;53.266;7.920;2023-09-30T08:02:41;17.20;80.90
29663;DHT22;16578;53.266;7.920;2023-09-30T08:05:07;17.30;80.90
29663;DHT22;16578;53.266;7.920;2023-09-30T08:07:33;17.30;80.90
29663;DHT22;16578;53.266;7.920;2023-09-30T08:09:59;17.30;80.90
29663;DHT22;16578;53.266;7.920;2023-09-30T08:12:25;17.40;81.00
29663;DHT22;16578;53.266;7.920;2023-09-30T08:14:50;17.40;81.00
29663;DHT22;16578;53.266;7.920;2023-09-30T08:17:17;17.40;80.90
29663;DHT22;16578;53.266;7.920;2023-09-30T08:19:46;17.50;80.90
29663;DHT22;16578;53.266;7.920;2023-09-30T08:22:13;17.50;80.90
29663;DHT22;16578;53.266;7.920;2023-09-30T08:24:39;17.50;80.70
29663;DHT22;16578;53.266;7.920;2023-09-30T08:27:05;17.50;80.70
29663;DHT22;16578;53.266;7.920;2023-09-30T08:29:33;17.60;80.80
29663;DHT22;16578;53.266;7.920;2023-09-30T08:32:01;17.60;80.70
29663;DHT22;16578;53.266;7.920;2023-09-30T08:34:27;17.60;80.80
29663;DHT22;16578;53.266;7.920;2023-09-30T08:36:52;17.70;81.00
29663;DHT22;16578;53.266;7.920;2023-09-30T08:39:18;17.70;81.00
29663;DHT22;16578;53.266;7.920;2023-09-30T08:41:44;17.70;81.80
29663;DHT22;16578;53.266;7.920;2023-09-30T08:44:10;17.80;81.00
29663;DHT22;16578;53.266;7.920;2023-09-30T08:46:37;17.80;81.00
29663;DHT22;16578;53.266;7.920;2023-09-30T08:49:04;17.90;81.10
29663;DHT22;16578;53.266;7.920;2023-09-30T08:51:30;17.90;81.20
29663;DHT22;16578;53.266;7.920;2023-09-30T08:53:56;17.90;81.00
29663;DHT22;16578;53.266;7.920;2023-09-30T08:56:28;18.00;80.90
29663;DHT22;16578;53.266;7.920;2023-09-30T08:58:58;18.00;80.90
29663;DHT22;16578;53.266;7.920;2023-09-30T09:01:26;18.10;80.90
29663;DHT22;16578;53.266;7.920;2023-09-30T09:03:52;18.10;81.30
29663;DHT22;16578;53.266;7.920;2023-09-30T09:06:21;18.20;80.90
29663;DHT22;16578;53.266;7.920;2023-09-30T09:08:47;18.20;80.80
29663;DHT22;16578;53.266;7.920;2023-09-30T09:11:14;18.20;80.70
29663;DHT22;16578;53.266;7.920;2023-09-30T09:13:47;18.30;80.80
29663;DHT22;16578;53.266;7.920;2023-09-30T09:16:16;18.30;80.60
29663;DHT22;16578;53.266;7.920;2023-09-30T09:18:43;18.40;80.80
29663;DHT22;16578;53.266;7.920;2023-09-30T09:23:42;18.50;80.70
29663;DHT22;16578;53.266;7.920;2023-09-30T09:26:09;18.50;80.70
29663;DHT22;16578;53.266;7.920;2023-09-30T09:28:35;18.60;80.70
29663;DHT22;16578;53.266;7.920;2023-09-30T09:31:20;18.60;80.60
29663;DHT22;16578;53.266;7.920;2023-09-30T09:33:46;18.70;80.70
29663;DHT22;16578;53.266;7.920;2023-09-30T09:36:12;18.70;80.40
29663;DHT22;16578;53.266;7.920;2023-09-30T09:38:53;18.80;80.30
29663;DHT22;16578;53.266;7.920;2023-09-30T09:41:20;18.80;80.00
29663;DHT22;16578;53.266;7.920;2023-09-30T09:43:48;18.80;79.90
29663;DHT22;16578;53.266;7.920;2023-09-30T09:46:16;18.90;79.70
29663;DHT22;16578;53.266;7.920;2023-09-30T09:48:45;18.90;79.50
29663;DHT22;16578;53.266;7.920;2023-09-30T09:51:11;19.00;79.50
29663;DHT22;16578;53.266;7.920;2023-09-30T09:53:39;19.00;79.40
29663;DHT22;16578;53.266;7.920;2023-09-30T09:56:10;19.00;79.30
29663;DHT22;16578;53.266;7.920;2023-09-30T09:58:38;19.10;79.20
29663;DHT22;16578;53.266;7.920;2023-09-30T10:01:06;19.10;79.10
29663;DHT22;16578;53.266;7.920;2023-09-30T10:03:32;19.10;79.10
29663;DHT22;16578;53.266;7.920;2023-09-30T10:05:58;19.10;79.10
29663;DHT22;16578;53.266;7.920;2023-09-30T10:08:32;19.20;78.90
29663;DHT22;16578;53.266;7.920;2023-09-30T10:10:59;19.20;78.50
29663;DHT22;16578;53.266;7.920;2023-09-30T10:19:13;19.30;78.30
29663;DHT22;16578;53.266;7.920;2023-09-30T10:21:40;19.30;78.30
29663;DHT22;16578;53.266;7.920;2023-09-30T10:40:47;19.60;77.60
29663;DHT22;16578;53.266;7.920;2023-09-30T10:46:04;19.60;77.30
29663;DHT22;16578;53.266;7.920;2023-09-30T10:48:50;19.60;77.10
29663;DHT22;16578;53.266;7.920;2023-09-30T10:51:17;19.60;76.80
29663;DHT22;16578;53.266;7.920;2023-09-30T10:53:54;19.70;76.80
29663;DHT22;16578;53.266;7.920;2023-09-30T10:56:32;19.70;76.90
29663;DHT22;16578;53.266;7.920;2023-09-30T10:58:58;19.80;76.90
29663;DHT22;16578;53.266;7.920;2023-09-30T11:01:24;19.80;77.10
29663;DHT22;16578;53.266;7.920;2023-09-30T11:03:58;19.80;77.00
29663;DHT22;16578;53.266;7.920;2023-09-30T11:06:24;19.90;76.40
29663;DHT22;16578;53.266;7.920;2023-09-30T11:08:53;19.90;76.20
29663;DHT22;16578;53.266;7.920;2023-09-30T11:11:37;19.90;76.30
29663;DHT22;16578;53.266;7.920;2023-09-30T11:14:23;20.00;75.80
29663;DHT22;16578;53.266;7.920;2023-09-30T11:16:50;20.00;75.90
29663;DHT22;16578;53.266;7.920;2023-09-30T11:19:16;20.00;76.20
29663;DHT22;16578;53.266;7.920;2023-09-30T11:21:43;20.00;76.20
29663;DHT22;16578;53.266;7.920;2023-09-30T11:24:10;20.10;76.00
29663;DHT22;16578;53.266;7.920;2023-09-30T11:26:36;20.10;75.70
29663;DHT22;16578;53.266;7.920;2023-09-30T11:29:16;20.20;75.70
29663;DHT22;16578;53.266;7.920;2023-09-30T11:31:43;20.20;75.20
29663;DHT22;16578;53.266;7.920;2023-09-30T11:34:10;20.20;75.30
29663;DHT22;16578;53.266;7.920;2023-09-30T11:36:47;20.20;74.90
29663;DHT22;16578;53.266;7.920;2023-09-30T11:41:48;20.30;74.80
29663;DHT22;16578;53.266;7.920;2023-09-30T11:44:13;20.30;74.90
29663;DHT22;16578;53.266;7.920;2023-09-30T11:49:33;20.40;74.30
29663;DHT22;16578;53.266;7.920;2023-09-30T11:52:02;20.50;74.40
29663;DHT22;16578;53.266;7.920;2023-09-30T11:54:33;20.50;74.60
29663;DHT22;16578;53.266;7.920;2023-09-30T11:57:00;20.50;74.40
29663;DHT22;16578;53.266;7.920;2023-09-30T11:59:26;20.50;74.60
29663;DHT22;16578;53.266;7.920;2023-09-30T12:01:51;20.50;74.40
29663;DHT22;16578;53.266;7.920;2023-09-30T12:04:18;20.60;73.90
29663;DHT22;16578;53.266;7.920;2023-09-30T12:06:45;20.60;73.70
29663;DHT22;16578;53.266;7.920;2023-09-30T12:09:12;20.60;73.70
29663;DHT22;16578;53.266;7.920;2023-09-30T12:11:41;20.70;73.70
29663;DHT22;16578;53.266;7.920;2023-09-30T12:14:10;20.70;73.40
29663;DHT22;16578;53.266;7.920;2023-09-30T12:16:35;20.70;73.40
29663;DHT22;16578;53.266;7.920;2023-09-30T12:19:01;20.70;73.20
29663;DHT22;16578;53.266;7.920;2023-09-30T12:21:29;20.80;73.10
29663;DHT22;16578;53.266;7.920;2023-09-30T12:23:54;20.80;72.80
29663;DHT22;16578;53.266;7.920;2023-09-30T12:26:20;20.80;73.00
29663;DHT22;16578;53.266;7.920;2023-09-30T12:28:46;20.80;72.60
29663;DHT22;16578;53.266;7.920;2023-09-30T12:31:12;20.80;72.30
29663;DHT22;16578;53.266;7.920;2023-09-30T12:33:39;20.80;72.20
29663;DHT22;16578;53.266;7.920;2023-09-30T12:36:04;20.80;72.20
29663;DHT22;16578;53.266;7.920;2023-09-30T12:38:30;20.80;71.90
29663;DHT22;16578;53.266;7.920;2023-09-30T12:40:55;20.80;70.90
29663;DHT22;16578;53.266;7.920;2023-09-30T12:43:21;20.80;70.70
29663;DHT22;16578;53.266;7.920;2023-09-30T12:45:47;20.80;70.80
29663;DHT22;16578;53.266;7.920;2023-09-30T12:48:14;20.80;70.80
29663;DHT22;16578;53.266;7.920;2023-09-30T12:50:41;20.80;70.90
29663;DHT22;16578;53.266;7.920;2023-09-30T12:53:06;20.80;70.70
29663;DHT22;16578;53.266;7.920;2023-09-30T12:55:32;20.80;70.60
29663;DHT22;16578;53.266;7.920;2023-09-30T12:57:57;20.70;70.20
29663;DHT22;16578;53.266;7.920;2023-09-30T13:00:25;20.70;69.90
29663;DHT22;16578;53.266;7.920;2023-09-30T13:02:51;20.70;70.20
29663;DHT22;16578;53.266;7.920;2023-09-30T13:05:17;20.70;70.50
29663;DHT22;16578;53.266;7.920;2023-09-30T13:07:43;20.70;70.20
29663;DHT22;16578;53.266;7.920;2023-09-30T13:10:09;20.70;69.60
29663;DHT22;16578;53.266;7.920;2023-09-30T13:12:35;20.70;69.80
29663;DHT22;16578;53.266;7.920;2023-09-30T13:15:01;20.70;70.00
29663;DHT22;16578;53.266;7.920;2023-09-30T13:17:26;20.70;69.80
29663;DHT22;16578;53.266;7.920;2023-09-30T13:19:52;20.70;69.50
29663;DHT22;16578;53.266;7.920;2023-09-30T13:22:18;20.70;69.80
29663;DHT22;16578;53.266;7.920;2023-09-30T13:24:44;20.70;69.90
29663;DHT22;16578;53.266;7.920;2023-09-30T13:27:09;20.70;70.00
29663;DHT22;16578;53.266;7.920;2023-09-30T13:29:35;20.70;70.30
29663;DHT22;16578;53.266;7.920;2023-09-30T13:32:01;20.80;70.50
29663;DHT22;16578;53.266;7.920;2023-09-30T13:34:27;20.80;70.50
29663;DHT22;16578;53.266;7.920;2023-09-30T13:36:55;20.80;70.40
29663;DHT22;16578;53.266;7.920;2023-09-30T13:39:22;20.80;70.10
29663;DHT22;16578;53.266;7.920;2023-09-30T13:41:49;20.70;69.80
29663;DHT22;16578;53.266;7.920;2023-09-30T13:44:15;20.80;69.90
29663;DHT22;16578;53.266;7.920;2023-09-30T13:46:41;20.80;69.90
29663;DHT22;16578;53.266;7.920;2023-09-30T13:49:08;20.80;69.90
29663;DHT22;16578;53.266;7.920;2023-09-30T13:51:33;20.80;70.20
29663;DHT22;16578;53.266;7.920;2023-09-30T13:53:59;20.80;70.30
29663;DHT22;16578;53.266;7.920;2023-09-30T13:56:24;20.80;70.10
29663;DHT22;16578;53.266;7.920;2023-09-30T13:58:50;20.80;70.10
29663;DHT22;16578;53.266;7.920;2023-09-30T14:01:15;20.80;70.10
29663;DHT22;16578;53.266;7.920;2023-09-30T14:03:41;20.90;70.20
29663;DHT22;16578;53.266;7.920;2023-09-30T14:06:10;20.90;70.50
29663;DHT22;16578;53.266;7.920;2023-09-30T14:08:39;20.90;70.60
29663;DHT22;16578;53.266;7.920;2023-09-30T14:11:08;20.90;70.50
29663;DHT22;16578;53.266;7.920;2023-09-30T14:13:34;20.90;70.20
29663;DHT22;16578;53.266;7.920;2023-09-30T14:15:59;20.90;70.40
29663;DHT22;16578;53.266;7.920;2023-09-30T14:18:25;20.90;70.30
29663;DHT22;16578;53.266;7.920;2023-09-30T14:20:50;20.90;69.90
29663;DHT22;16578;53.266;7.920;2023-09-30T14:23:16;20.90;70.00
29663;DHT22;16578;53.266;7.920;2023-09-30T14:25:42;20.90;70.00
29663;DHT22;16578;53.266;7.920;2023-09-30T14:28:08;20.90;69.80
29663;DHT22;16578;53.266;7.920;2023-09-30T14:30:33;21.00;70.00
29663;DHT22;16578;53.266;7.920;2023-09-30T14:32:59;21.00;69.80
29663;DHT22;16578;53.266;7.920;2023-09-30T14:35:24;21.00;69.60
29663;DHT22;16578;53.266;7.920;2023-09-30T14:37:50;21.00;69.70
29663;DHT22;16578;53.266;7.920;2023-09-30T14:40:16;21.00;69.90
29663;DHT22;16578;53.266;7.920;2023-09-30T14:42:42;21.00;69.70
29663;DHT22;16578;53.266;7.920;2023-09-30T14:45:08;21.00;69.70
29663;DHT22;16578;53.266;7.920;2023-09-30T14:47:34;21.00;69.40
29663;DHT22;16578;53.266;7.920;2023-09-30T14:49:59;21.10;69.50
29663;DHT22;16578;53.266;7.920;2023-09-30T14:52:28;21.10;69.30
29663;DHT22;16578;53.266;7.920;2023-09-30T14:54:54;21.00;69.30
29663;DHT22;16578;53.266;7.920;2023-09-30T14:57:19;21.00;69.30
29663;DHT22;16578;53.266;7.920;2023-09-30T14:59:46;21.00;69.50
29663;DHT22;16578;53.266;7.920;2023-09-30T15:02:12;21.00;69.50
29663;DHT22;16578;53.266;7.920;2023-09-30T15:04:37;21.00;69.70
29663;DHT22;16578;53.266;7.920;2023-09-30T15:07:06;21.00;69.70
29663;DHT22;16578;53.266;7.920;2023-09-30T15:09:31;20.90;70.10
29663;DHT22;16578;53.266;7.920;2023-09-30T15:11:57;20.90;69.90
29663;DHT22;16578;53.266;7.920;2023-09-30T15:14:23;20.90;70.00
29663;DHT22;16578;53.266;7.920;2023-09-30T15:16:49;20.90;70.00
29663;DHT22;16578;53.266;7.920;2023-09-30T15:19:14;20.90;70.30
29663;DHT22;16578;53.266;7.920;2023-09-30T15:21:40;20.80;70.00
29663;DHT22;16578;53.266;7.920;2023-09-30T15:24:06;20.80;69.80
29663;DHT22;16578;53.266;7.920;2023-09-30T15:26:32;20.80;69.80
29663;DHT22;16578;53.266;7.920;2023-09-30T15:28:58;20.70;69.70
29663;DHT22;16578;53.266;7.920;2023-09-30T15:31:30;20.70;69.70
29663;DHT22;16578;53.266;7.920;2023-09-30T15:33:56;20.70;69.80
29663;DHT22;16578;53.266;7.920;2023-09-30T15:36:22;20.70;70.30
29663;DHT22;16578;53.266;7.920;2023-09-30T15:38:48;20.70;70.40
29663;DHT22;16578;53.266;7.920;2023-09-30T15:41:14;20.60;70.70
29663;DHT22;16578;53.266;7.920;2023-09-30T15:43:40;20.60;70.80
29663;DHT22;16578;53.266;7.920;2023-09-30T15:46:08;20.60;71.00
29663;DHT22;16578;53.266;7.920;2023-09-30T15:48:33;20.60;71.00
29663;DHT22;16578;53.266;7.920;2023-09-30T15:51:00;20.60;71.90
29663;DHT22;16578;53.266;7.920;2023-09-30T15:53:25;20.60;70.90
29663;DHT22;16578;53.266;7.920;2023-09-30T15:55:53;20.60;70.90
29663;DHT22;16578;53.266;7.920;2023-09-30T15:58:18;20.60;71.00
29663;DHT22;16578;53.266;7.920;2023-09-30T16:00:44;20.60;71.20